Time;durP1;ratioP1;P1;durP2;ratioP2;P2;SDS_P1;SDS_P2;PMS_P1;PMS_P2;Temp;Humidity;BMP_temperature;BMP_pressure;BME280_temperature;BME280_humidity;BME280_pressure;Samples;Min_cycle;Max_cycle;Signal;HPM_P1;HPM_P2
2021/05/03 00:00:14;;;;;;;9.20;8.30;;;;;;;;;;5072668;28;20172;-84
2021/05/03 00:02:40;;;;;;;10.00;8.98;;;;;;;;;;5084933;28;20195;-85
2021/05/03 00:05:07;;;;;;;12.55;9.15;;;;;;;;;;5081848;28;20209;-85
2021/05/03 00:07:33;;;;;;;16.00;8.95;;;;;;;;;;5074743;28;20216;-86
2021/05/03 00:09:59;;;;;;;10.38;9.38;;;;;;;;;;5077317;28;20234;-87
2021/05/03 00:12:25;;;;;;;9.85;8.95;;;;;;;;;;5079084;28;20184;-85
2021/05/03 00:14:51;;;;;;;9.98;9.00;;;;;;;;;;5064345;28;20180;-85
2021/05/03 00:17:18;;;;;;;10.35;8.95;;;;;;;;;;5066556;28;20188;-86
2021/05/03 00:19:44;;;;;;;10.00;9.00;;;;;;;;;;5077355;28;20267;-86
2021/05/03 00:22:10;;;;;;;10.13;8.52;;;;;;;;;;5081170;28;20238;-86
2021/05/03 00:24:36;;;;;;;9.23;8.27;;;;;;;;;;5059432;28;20268;-85
2021/05/03 00:27:02;;;;;;;12.68;9.98;;;;;;;;;;5062350;28;20196;-85
2021/05/03 00:29:28;;;;;;;10.25;9.30;;;;;;;;;;5061288;28;20181;-86
2021/05/03 00:31:54;;;;;;;10.82;9.73;;;;;;;;;;5066373;28;21013;-85
2021/05/03 00:34:20;;;;;;;11.13;10.03;;;;;;;;;;5065550;28;20191;-86
2021/05/03 00:36:46;;;;;;;10.60;9.60;;;;;;;;;;5070806;28;20443;-86
2021/05/03 00:39:12;;;;;;;10.52;9.43;;;;;;;;;;5081759;28;20259;-85
2021/05/03 00:41:38;;;;;;;12.20;9.97;;;;;;;;;;5076702;28;20185;-85
2021/05/03 00:44:04;;;;;;;11.20;10.05;;;;;;;;;;5075987;28;20471;-85
2021/05/03 00:46:31;;;;;;;11.50;10.20;;;;;;;;;;5061878;28;20188;-84
2021/05/03 00:48:57;;;;;;;12.40;10.23;;;;;;;;;;5070217;28;20204;-86
2021/05/03 00:51:23;;;;;;;11.15;10.05;;;;;;;;;;5082926;28;20177;-85
2021/05/03 00:53:49;;;;;;;12.93;10.60;;;;;;;;;;5085431;28;20179;-87
2021/05/03 00:56:15;;;;;;;11.48;10.43;;;;;;;;;;5076153;28;20184;-86
2021/05/03 00:58:41;;;;;;;12.55;11.23;;;;;;;;;;5055098;28;20209;-86
2021/05/03 01:01:07;;;;;;;13.02;10.70;;;;;;;;;;5090560;28;20630;-87
2021/05/03 01:03:33;;;;;;;12.05;10.50;;;;;;;;;;5087972;28;20240;-85
2021/05/03 01:05:59;;;;;;;12.00;10.73;;;;;;;;;;5060822;28;20267;-85
2021/05/03 01:08:25;;;;;;;13.65;11.65;;;;;;;;;;5079928;28;20199;-85
2021/05/03 01:10:51;;;;;;;11.68;10.48;;;;;;;;;;5082706;28;20189;-85
2021/05/03 01:13:17;;;;;;;12.13;10.85;;;;;;;;;;5091281;28;20199;-85
2021/05/03 01:15:43;;;;;;;13.07;11.50;;;;;;;;;;5078348;28;20184;-86
2021/05/03 01:18:09;;;;;;;12.00;10.80;;;;;;;;;;5095839;28;20200;-86
2021/05/03 01:20:36;;;;;;;13.20;10.73;;;;;;;;;;5075496;28;20192;-86
2021/05/03 01:23:03;;;;;;;11.73;10.60;;;;;;;;;;5076753;28;20620;-86
2021/05/03 01:25:37;;;;;;;12.43;11.13;;;;;;;;;;5087747;28;20188;-85
2021/05/03 01:28:04;;;;;;;12.07;10.88;;;;;;;;;;5089764;28;20199;-86
2021/05/03 01:30:38;;;;;;;12.77;11.30;;;;;;;;;;5069235;28;20694;-86
2021/05/03 01:33:05;;;;;;;14.43;12.13;;;;;;;;;;5070361;28;20206;-85
2021/05/03 01:35:31;;;;;;;13.15;10.90;;;;;;;;;;5080943;28;20218;-85
2021/05/03 01:37:57;;;;;;;13.13;11.30;;;;;;;;;;5078230;28;20184;-85
2021/05/03 01:40:24;;;;;;;12.50;11.10;;;;;;;;;;5073666;28;20197;-86
2021/05/03 01:42:51;;;;;;;12.48;11.27;;;;;;;;;;5080635;28;20192;-86
2021/05/03 01:45:22;;;;;;;12.20;11.00;;;;;;;;;;5077035;28;20216;-85
2021/05/03 01:47:50;;;;;;;12.43;11.00;;;;;;;;;;5078353;28;20214;-86
2021/05/03 01:50:16;;;;;;;13.63;10.75;;;;;;;;;;5064815;28;20203;-86
2021/05/03 01:52:42;;;;;;;12.15;10.20;;;;;;;;;;5060936;28;20203;-85
2021/05/03 01:55:08;;;;;;;12.63;10.60;;;;;;;;;;5072373;28;20173;-86
2021/05/03 01:57:35;;;;;;;12.60;10.45;;;;;;;;;;5063244;28;20184;-87
2021/05/03 02:00:01;;;;;;;11.60;10.38;;;;;;;;;;5078111;28;20657;-86
2021/05/03 02:02:26;;;;;;;9.98;8.98;;;;;;;;;;5079070;28;20184;-86
2021/05/03 02:04:52;;;;;;;14.75;10.52;;;;;;;;;;5064521;28;20214;-86
2021/05/03 02:07:18;;;;;;;12.00;10.85;;;;;;;;;;5089907;28;20204;-86
2021/05/03 02:09:45;;;;;;;12.20;11.00;;;;;;;;;;5078292;28;20188;-86
2021/05/03 02:12:11;;;;;;;10.73;9.63;;;;;;;;;;5077381;28;20236;-86
2021/05/03 02:14:38;;;;;;;11.60;10.60;;;;;;;;;;5071557;28;20177;-86
2021/05/03 02:17:04;;;;;;;13.25;10.80;;;;;;;;;;5071204;28;20243;-87
2021/05/03 02:19:30;;;;;;;11.38;10.23;;;;;;;;;;5084233;28;20203;-86
2021/05/03 02:21:56;;;;;;;12.20;9.95;;;;;;;;;;5093383;28;20185;-86
2021/05/03 02:24:22;;;;;;;15.00;11.70;;;;;;;;;;5076912;28;20238;-87
2021/05/03 02:26:48;;;;;;;12.68;10.15;;;;;;;;;;5056428;28;20207;-86
2021/05/03 02:29:14;;;;;;;13.75;12.35;;;;;;;;;;5048944;28;20184;-86
2021/05/03 02:31:40;;;;;;;12.43;10.73;;;;;;;;;;5075356;28;20514;-86
2021/05/03 02:34:06;;;;;;;11.83;10.57;;;;;;;;;;5062958;28;20590;-86
2021/05/03 02:36:32;;;;;;;15.55;11.50;;;;;;;;;;5085853;28;20497;-86
2021/05/03 02:38:58;;;;;;;13.15;11.65;;;;;;;;;;5064157;28;20207;-87
2021/05/03 02:41:24;;;;;;;12.98;11.63;;;;;;;;;;5063931;28;20217;-87
2021/05/03 02:43:50;;;;;;;13.07;11.65;;;;;;;;;;5081529;28;20211;-87
2021/05/03 02:46:17;;;;;;;12.20;10.77;;;;;;;;;;5109533;28;20180;-86
2021/05/03 02:48:43;;;;;;;13.32;11.93;;;;;;;;;;5106553;28;20258;-86
2021/05/03 02:51:09;;;;;;;13.75;12.13;;;;;;;;;;5109154;28;20171;-87
2021/05/03 02:53:35;;;;;;;11.35;10.25;;;;;;;;;;5100439;28;20214;-85
2021/05/03 02:56:00;;;;;;;13.00;11.67;;;;;;;;;;5107503;28;20517;-87
2021/05/03 02:58:26;;;;;;;12.48;11.02;;;;;;;;;;5110185;28;20441;-87
2021/05/03 03:00:52;;;;;;;12.43;10.57;;;;;;;;;;5110910;28;20176;-87
2021/05/03 03:03:19;;;;;;;13.63;11.40;;;;;;;;;;5096700;28;20180;-86
2021/05/03 03:05:45;;;;;;;14.80;11.30;;;;;;;;;;5096126;28;20253;-87
2021/05/03 03:08:10;;;;;;;13.65;12.35;;;;;;;;;;5096570;28;20220;-86
2021/05/03 03:10:36;;;;;;;12.00;10.80;;;;;;;;;;5100442;28;20176;-86
2021/05/03 03:13:04;;;;;;;12.07;10.60;;;;;;;;;;5102700;28;20278;-83
2021/05/03 03:15:33;;;;;;;14.32;11.50;;;;;;;;;;5098574;28;20219;-86
2021/05/03 03:18:00;;;;;;;13.23;10.90;;;;;;;;;;5102786;28;20244;-85
2021/05/03 03:20:26;;;;;;;15.60;11.93;;;;;;;;;;5104230;28;20180;-86
2021/05/03 03:22:52;;;;;;;14.88;12.23;;;;;;;;;;5098233;28;20191;-87
2021/05/03 03:25:19;;;;;;;13.65;11.50;;;;;;;;;;5113121;28;20184;-87
2021/05/03 03:27:45;;;;;;;13.13;11.07;;;;;;;;;;5109590;28;20216;-86
2021/05/03 03:30:12;;;;;;;13.57;11.35;;;;;;;;;;5112212;28;20246;-86
2021/05/03 03:32:43;;;;;;;13.73;12.38;;;;;;;;;;5103659;28;20183;-87
2021/05/03 03:35:09;;;;;;;14.35;12.88;;;;;;;;;;5103591;28;20200;-86
2021/05/03 03:37:35;;;;;;;15.13;13.20;;;;;;;;;;5095286;28;20191;-86
2021/05/03 03:40:01;;;;;;;13.40;12.00;;;;;;;;;;5112951;28;20205;-87
2021/05/03 03:42:27;;;;;;;14.57;12.95;;;;;;;;;;5109765;28;20268;-86
2021/05/03 03:44:53;;;;;;;12.67;11.30;;;;;;;;;;5104492;28;20226;-87
2021/05/03 03:47:19;;;;;;;15.37;12.77;;;;;;;;;;5106364;28;20461;-87
2021/05/03 03:49:45;;;;;;;14.80;13.20;;;;;;;;;;5098814;28;20435;-87
2021/05/03 03:52:11;;;;;;;14.50;13.00;;;;;;;;;;5103795;28;20263;-87
2021/05/03 03:54:37;;;;;;;16.35;11.65;;;;;;;;;;5098280;28;20192;-86
2021/05/03 03:57:03;;;;;;;14.85;13.02;;;;;;;;;;5109639;28;20256;-87
2021/05/03 03:59:32;;;;;;;15.43;11.70;;;;;;;;;;5103492;28;20690;-88
2021/05/03 04:01:59;;;;;;;16.75;13.30;;;;;;;;;;5102874;28;20206;-86
2021/05/03 04:04:28;;;;;;;14.63;13.07;;;;;;;;;;5110926;28;20247;-87
2021/05/03 04:07:12;;;;;;;14.00;12.00;;;;;;;;;;5108030;28;20200;-87
2021/05/03 04:09:46;;;;;;;13.20;11.85;;;;;;;;;;5107361;28;20180;-86
2021/05/03 04:25:55;;;;;;;13.93;11.20;;;;;;;;;;5102237;28;20198;-87
2021/05/03 04:28:21;;;;;;;14.20;12.70;;;;;;;;;;5111784;28;20271;-88
2021/05/03 04:30:47;;;;;;;15.25;12.23;;;;;;;;;;5098038;28;20180;-87
2021/05/03 04:33:13;;;;;;;12.95;11.60;;;;;;;;;;5099687;28;20685;-87
2021/05/03 04:35:39;;;;;;;15.10;12.43;;;;;;;;;;5106785;28;20175;-87
2021/05/03 04:38:05;;;;;;;14.60;12.98;;;;;;;;;;5108205;28;20183;-87
2021/05/03 04:40:31;;;;;;;15.90;12.45;;;;;;;;;;5111762;28;20192;-88
2021/05/03 04:42:57;;;;;;;14.82;12.35;;;;;;;;;;5095028;28;20184;-87
2021/05/03 04:45:23;;;;;;;13.18;11.77;;;;;;;;;;5090473;28;20229;-86
2021/05/03 04:47:49;;;;;;;31.42;13.38;;;;;;;;;;5067447;28;20212;-87
2021/05/03 04:50:15;;;;;;;14.85;13.30;;;;;;;;;;5072835;28;20176;-87
2021/05/03 04:52:41;;;;;;;15.50;13.07;;;;;;;;;;5074134;28;20195;-88
2021/05/03 04:55:07;;;;;;;15.05;12.32;;;;;;;;;;5076814;28;20236;-88
2021/05/03 04:57:34;;;;;;;13.85;12.40;;;;;;;;;;5063801;28;20223;-87
2021/05/03 05:00:00;;;;;;;14.23;12.10;;;;;;;;;;5071117;28;20243;-87
2021/05/03 05:02:26;;;;;;;14.23;12.65;;;;;;;;;;5066486;28;20214;-86
2021/05/03 05:04:52;;;;;;;16.35;12.73;;;;;;;;;;5080691;28;20208;-88
2021/05/03 05:07:20;;;;;;;14.32;12.18;;;;;;;;;;5070026;28;20204;-88
2021/05/03 05:09:46;;;;;;;13.90;12.20;;;;;;;;;;5077577;28;20176;-87
2021/05/03 05:12:12;;;;;;;12.95;11.65;;;;;;;;;;5063199;28;20229;-87
2021/05/03 05:14:38;;;;;;;14.27;12.77;;;;;;;;;;5071594;28;20252;-88
2021/05/03 05:17:04;;;;;;;18.63;13.00;;;;;;;;;;5066349;28;20191;-88
2021/05/03 05:19:30;;;;;;;16.25;12.57;;;;;;;;;;5057315;28;20203;-88
2021/05/03 05:21:56;;;;;;;16.13;13.30;;;;;;;;;;5059925;28;20193;-87
2021/05/03 05:24:22;;;;;;;14.15;12.65;;;;;;;;;;5090542;28;20183;-88
2021/05/03 05:26:51;;;;;;;15.48;12.02;;;;;;;;;;5066833;28;20270;-87
2021/05/03 05:29:17;;;;;;;17.10;14.07;;;;;;;;;;5061762;28;20181;-86
2021/05/03 05:31:43;;;;;;;16.65;13.25;;;;;;;;;;5051224;28;20176;-87
2021/05/03 05:34:09;;;;;;;13.90;12.15;;;;;;;;;;5059629;28;20185;-86
2021/05/03 05:36:35;;;;;;;15.25;12.55;;;;;;;;;;5068554;28;20184;-87
2021/05/03 05:39:01;;;;;;;15.32;13.05;;;;;;;;;;5055989;28;20168;-88
2021/05/03 05:41:28;;;;;;;16.92;13.60;;;;;;;;;;5075120;28;20195;-89
2021/05/03 05:43:54;;;;;;;16.60;13.15;;;;;;;;;;5075673;28;20233;-87
2021/05/03 05:46:20;;;;;;;16.65;14.95;;;;;;;;;;5063754;28;20181;-89
2021/05/03 05:48:47;;;;;;;17.50;13.65;;;;;;;;;;5055895;28;20213;-89
2021/05/03 05:51:13;;;;;;;18.48;16.65;;;;;;;;;;5056746;28;20238;-87
2021/05/03 05:53:39;;;;;;;16.65;14.25;;;;;;;;;;5078861;28;20180;-88
2021/05/03 05:56:06;;;;;;;18.92;14.45;;;;;;;;;;5059837;28;20177;-87
2021/05/03 05:58:33;;;;;;;16.05;14.30;;;;;;;;;;5077955;28;20191;-88
2021/05/03 06:01:00;;;;;;;15.77;13.70;;;;;;;;;;5067647;28;20721;-86
2021/05/03 06:03:26;;;;;;;16.67;14.05;;;;;;;;;;5054978;28;20193;-84
2021/05/03 06:05:53;;;;;;;16.88;15.18;;;;;;;;;;5076483;28;20184;-85
2021/05/03 06:08:19;;;;;;;18.55;15.88;;;;;;;;;;5053060;28;20201;-90
2021/05/03 06:10:45;;;;;;;20.80;15.60;;;;;;;;;;5049808;28;20192;-89
2021/05/03 06:13:11;;;;;;;18.25;14.75;;;;;;;;;;5051864;28;20443;-88
2021/05/03 06:15:37;;;;;;;17.75;15.30;;;;;;;;;;5049174;28;20222;-89
2021/05/03 06:18:04;;;;;;;17.77;14.93;;;;;;;;;;5072744;28;20181;-87
2021/05/03 06:20:30;;;;;;;20.38;16.58;;;;;;;;;;5051401;28;20181;-89
2021/05/03 06:23:00;;;;;;;16.20;14.45;;;;;;;;;;5074633;28;20223;-90
2021/05/03 06:25:26;;;;;;;17.00;14.90;;;;;;;;;;5055563;28;20185;-89
2021/05/03 06:27:52;;;;;;;20.83;15.35;;;;;;;;;;5061282;28;20300;-88
2021/05/03 06:30:18;;;;;;;19.88;16.42;;;;;;;;;;5065078;28;20201;-88
2021/05/03 06:32:44;;;;;;;15.93;14.23;;;;;;;;;;5062822;28;20209;-87
2021/05/03 06:35:10;;;;;;;14.52;12.82;;;;;;;;;;5062084;28;20181;-87
2021/05/03 06:37:36;;;;;;;15.23;13.40;;;;;;;;;;5068459;28;20184;-88
2021/05/03 06:40:03;;;;;;;16.10;14.30;;;;;;;;;;5086678;28;20189;-89
2021/05/03 06:42:29;;;;;;;14.00;12.57;;;;;;;;;;5070491;28;20936;-88
2021/05/03 06:44:54;;;;;;;17.63;15.05;;;;;;;;;;5078590;28;20244;-88
2021/05/03 06:47:20;;;;;;;15.40;13.90;;;;;;;;;;5098175;28;20274;-87
2021/05/03 06:49:47;;;;;;;14.15;12.77;;;;;;;;;;5092290;28;20523;-87
2021/05/03 06:52:13;;;;;;;16.42;13.98;;;;;;;;;;5095415;28;20212;-87
2021/05/03 06:54:39;;;;;;;14.52;12.85;;;;;;;;;;5097705;28;20241;-87
2021/05/03 06:57:05;;;;;;;15.63;13.75;;;;;;;;;;5107839;28;20175;-89
2021/05/03 06:59:31;;;;;;;13.98;12.32;;;;;;;;;;5104780;28;20194;-88
2021/05/03 07:01:57;;;;;;;14.15;12.65;;;;;;;;;;5092983;28;20183;-88
2021/05/03 07:04:23;;;;;;;15.85;13.18;;;;;;;;;;5107703;28;20192;-87
2021/05/03 07:06:49;;;;;;;12.02;10.82;;;;;;;;;;5090209;28;20692;-87
2021/05/03 07:09:14;;;;;;;17.40;12.77;;;;;;;;;;5091506;28;20188;-88
2021/05/03 07:11:42;;;;;;;13.77;12.32;;;;;;;;;;5100340;28;20172;-86
2021/05/03 07:14:08;;;;;;;13.93;11.75;;;;;;;;;;5096284;28;20175;-88
2021/05/03 07:16:34;;;;;;;12.65;11.32;;;;;;;;;;5089723;28;20225;-87
2021/05/03 07:19:00;;;;;;;12.73;11.60;;;;;;;;;;5103665;28;20739;-86
2021/05/03 07:21:27;;;;;;;11.15;10.00;;;;;;;;;;5109233;28;20171;-85
2021/05/03 07:23:53;;;;;;;11.55;10.35;;;;;;;;;;5103051;28;20379;-88
2021/05/03 07:26:19;;;;;;;11.48;10.35;;;;;;;;;;5107476;28;20206;-87
2021/05/03 07:28:45;;;;;;;10.43;9.50;;;;;;;;;;5098033;28;20740;-91
2021/05/03 07:31:11;;;;;;;10.95;8.75;;;;;;;;;;5108853;28;20210;-87
2021/05/03 07:33:37;;;;;;;10.10;9.15;;;;;;;;;;5097703;28;20181;-88
2021/05/03 07:36:03;;;;;;;12.60;9.05;;;;;;;;;;5093736;28;20218;-87
2021/05/03 07:38:30;;;;;;;10.02;8.95;;;;;;;;;;5102904;28;20183;-89
2021/05/03 07:40:56;;;;;;;9.25;8.35;;;;;;;;;;5113765;28;20183;-88
2021/05/03 07:43:22;;;;;;;10.23;9.07;;;;;;;;;;5105616;28;20251;-91
2021/05/03 07:45:48;;;;;;;11.02;9.20;;;;;;;;;;5070091;28;20435;-85
2021/05/03 07:48:14;;;;;;;9.23;8.23;;;;;;;;;;5048024;28;20201;-84
2021/05/03 07:50:41;;;;;;;12.15;9.07;;;;;;;;;;5070307;28;20180;-84
2021/05/03 07:53:07;;;;;;;10.90;9.52;;;;;;;;;;5055657;28;20240;-88
2021/05/03 07:55:33;;;;;;;12.73;10.85;;;;;;;;;;5051493;28;20227;-89
2021/05/03 07:58:00;;;;;;;10.65;9.55;;;;;;;;;;5069894;28;20208;-90
2021/05/03 08:00:27;;;;;;;12.13;10.10;;;;;;;;;;5084378;28;20186;-87
2021/05/03 08:02:54;;;;;;;10.43;9.43;;;;;;;;;;5067575;28;20271;-89
2021/05/03 08:05:20;;;;;;;10.50;9.60;;;;;;;;;;5078109;28;20197;-90
2021/05/03 08:07:46;;;;;;;12.68;11.00;;;;;;;;;;5066277;28;20204;-89
2021/05/03 08:10:12;;;;;;;10.55;9.55;;;;;;;;;;5060540;28;20181;-87
2021/05/03 08:12:38;;;;;;;11.13;10.13;;;;;;;;;;5089066;28;20200;-88
2021/05/03 08:15:13;;;;;;;10.80;9.70;;;;;;;;;;5068575;28;20167;-91
2021/05/03 08:17:39;;;;;;;10.15;9.20;;;;;;;;;;5084082;28;20320;-92
2021/05/03 08:20:06;;;;;;;10.18;9.05;;;;;;;;;;5084027;28;20183;-91
2021/05/03 08:22:32;;;;;;;9.95;8.95;;;;;;;;;;5066697;28;20422;-88
2021/05/03 08:24:58;;;;;;;10.02;7.43;;;;;;;;;;5058615;28;20275;-86
2021/05/03 08:27:24;;;;;;;8.70;7.93;;;;;;;;;;5058789;28;20748;-89
2021/05/03 08:29:50;;;;;;;8.70;7.72;;;;;;;;;;5075010;28;20180;-89
2021/05/03 08:32:16;;;;;;;8.40;7.07;;;;;;;;;;5060221;28;20184;-88
2021/05/03 08:34:42;;;;;;;8.30;7.60;;;;;;;;;;5077308;28;20189;-89
2021/05/03 08:37:08;;;;;;;8.38;7.47;;;;;;;;;;5080359;28;20189;-88
2021/05/03 08:39:35;;;;;;;8.73;7.90;;;;;;;;;;5069509;28;20198;-87
2021/05/03 08:42:01;;;;;;;7.97;7.25;;;;;;;;;;5068649;28;20536;-91
2021/05/03 08:44:29;;;;;;;8.25;6.45;;;;;;;;;;5079640;28;20235;-88
2021/05/03 08:46:56;;;;;;;7.70;7.00;;;;;;;;;;5092379;28;20196;-91
2021/05/03 08:52:21;;;;;;;7.43;6.63;;;;;;;;;;5108675;28;20188;-88
2021/05/03 08:54:47;;;;;;;6.93;6.20;;;;;;;;;;5107175;28;20671;-86
2021/05/03 08:57:14;;;;;;;6.57;5.97;;;;;;;;;;5100239;28;20187;-88
2021/05/03 08:59:41;;;;;;;6.47;5.72;;;;;;;;;;5094561;28;20235;-93
2021/05/03 09:02:08;;;;;;;7.10;5.88;;;;;;;;;;5097763;28;20196;-90
2021/05/03 09:04:34;;;;;;;7.57;6.25;;;;;;;;;;5108396;28;20220;-92
2021/05/03 09:07:06;;;;;;;7.15;6.55;;;;;;;;;;5097669;28;20204;-84
2021/05/03 09:09:38;;;;;;;7.13;6.35;;;;;;;;;;5096617;28;20194;-90
2021/05/03 09:12:08;;;;;;;6.43;5.78;;;;;;;;;;5091125;28;20172;-89
2021/05/03 09:14:34;;;;;;;7.88;6.00;;;;;;;;;;5094025;28;20196;-86
2021/05/03 09:17:01;;;;;;;5.88;5.38;;;;;;;;;;5095879;28;20383;-88
2021/05/03 09:19:27;;;;;;;7.07;6.38;;;;;;;;;;5095643;28;20195;-87
2021/05/03 09:21:54;;;;;;;7.22;6.57;;;;;;;;;;5090368;28;20172;-92
2021/05/03 09:24:31;;;;;;;6.18;5.65;;;;;;;;;;5110400;28;20186;-89
2021/05/03 09:27:04;;;;;;;8.13;6.00;;;;;;;;;;5104470;28;20272;-89
2021/05/03 09:29:31;;;;;;;5.60;5.10;;;;;;;;;;5100105;28;20186;-90
2021/05/03 09:32:00;;;;;;;5.95;5.35;;;;;;;;;;5100383;28;20578;-94
2021/05/03 09:34:28;;;;;;;5.47;4.97;;;;;;;;;;5108422;28;20187;-88
2021/05/03 09:36:54;;;;;;;7.53;5.85;;;;;;;;;;5108251;28;20249;-89
2021/05/03 09:39:30;;;;;;;7.22;5.07;;;;;;;;;;5097654;28;20337;-84
2021/05/03 09:41:56;;;;;;;6.35;5.60;;;;;;;;;;5087902;28;20164;-88
2021/05/03 09:44:22;;;;;;;6.22;5.72;;;;;;;;;;5087648;28;20236;-88
2021/05/03 09:47:20;;;;;;;6.00;5.40;;;;;;;;;;5088632;28;20242;-91
2021/05/03 09:49:59;;;;;;;5.13;4.70;;;;;;;;;;4996890;28;20459;-88
2021/05/03 09:53:27;;;;;;;4.97;4.55;;;;;;;;;;4993298;28;20191;-90
2021/05/03 09:55:35;;;;;;;6.10;4.97;;;;;;;;;;4952613;28;20655;-91
2021/05/03 09:58:20;;;;;;;5.63;4.40;;;;;;;;;;4959192;28;20192;-90
2021/05/03 10:00:48;;;;;;;3.65;3.35;;;;;;;;;;4954045;28;20196;-94
2021/05/03 10:03:30;;;;;;;4.03;3.72;;;;;;;;;;4957184;28;20312;-88
2021/05/03 10:05:56;;;;;;;4.35;3.95;;;;;;;;;;4954683;28;20184;-91
2021/05/03 10:08:22;;;;;;;4.80;3.45;;;;;;;;;;4969338;28;20219;-93
2021/05/03 10:10:51;;;;;;;4.75;4.35;;;;;;;;;;4966577;28;20201;-92
2021/05/03 10:13:18;;;;;;;4.07;3.78;;;;;;;;;;4969030;28;20264;-91
2021/05/03 10:15:45;;;;;;;4.15;3.75;;;;;;;;;;4966495;28;20215;-89
2021/05/03 10:18:12;;;;;;;4.45;4.05;;;;;;;;;;4946787;29;20721;-89
2021/05/03 10:20:38;;;;;;;5.43;5.03;;;;;;;;;;4949300;28;20681;-89
2021/05/03 10:23:04;;;;;;;4.13;3.72;;;;;;;;;;4966342;28;20197;-91
2021/05/03 10:25:31;;;;;;;4.32;3.90;;;;;;;;;;4961714;28;20460;-86
2021/05/03 10:27:59;;;;;;;4.57;4.18;;;;;;;;;;4994086;28;20226;-87
2021/05/03 10:30:25;;;;;;;4.03;3.63;;;;;;;;;;5009535;28;20281;-89
2021/05/03 10:32:58;;;;;;;4.40;4.00;;;;;;;;;;5080318;28;20198;-87
2021/05/03 10:35:28;;;;;;;3.92;3.63;;;;;;;;;;5101161;28;20187;-90
2021/05/03 10:37:55;;;;;;;4.45;3.80;;;;;;;;;;5098176;28;20217;-86
2021/05/03 10:40:21;;;;;;;4.10;3.80;;;;;;;;;;5109628;28;20198;-88
2021/05/03 10:43:02;;;;;;;5.33;4.10;;;;;;;;;;5110575;28;20189;-89
2021/05/03 10:45:42;;;;;;;4.35;3.95;;;;;;;;;;5087174;28;20460;-89
2021/05/03 10:48:27;;;;;;;3.88;3.55;;;;;;;;;;5084477;28;20544;-87
2021/05/03 10:50:52;;;;;;;7.43;3.80;;;;;;;;;;5066209;28;20174;-90
2021/05/03 10:53:24;;;;;;;3.83;3.33;;;;;;;;;;5079541;28;20191;-87
2021/05/03 10:55:52;;;;;;;4.03;3.63;;;;;;;;;;5064236;28;20429;-87
2021/05/03 10:58:18;;;;;;;3.70;3.35;;;;;;;;;;5070019;28;20208;-91
2021/05/03 11:00:56;;;;;;;3.65;2.95;;;;;;;;;;5091212;28;20181;-88
2021/05/03 11:03:42;;;;;;;3.10;2.80;;;;;;;;;;5066890;28;20183;-91
2021/05/03 11:06:08;;;;;;;3.47;3.17;;;;;;;;;;5059807;28;20274;-89
2021/05/03 11:08:34;;;;;;;4.20;3.35;;;;;;;;;;5063817;28;20204;-87
2021/05/03 11:11:07;;;;;;;5.50;3.00;;;;;;;;;;5057427;28;20224;-88
2021/05/03 11:13:45;;;;;;;4.30;3.92;;;;;;;;;;5074157;28;20189;-91
2021/05/03 11:16:30;;;;;;;3.65;2.60;;;;;;;;;;5077642;28;20197;-85
2021/05/03 11:18:57;;;;;;;4.70;3.83;;;;;;;;;;5067620;28;20238;-82
2021/05/03 11:21:43;;;;;;;3.55;3.25;;;;;;;;;;5077050;28;20172;-87
2021/05/03 11:24:21;;;;;;;6.70;2.95;;;;;;;;;;5050475;28;20177;-84
2021/05/03 11:26:59;;;;;;;4.00;3.60;;;;;;;;;;5069522;28;20200;-85
2021/05/03 11:29:32;;;;;;;3.85;3.50;;;;;;;;;;5067636;28;20209;-89
2021/05/03 11:31:58;;;;;;;3.85;3.00;;;;;;;;;;5083358;28;20184;-91
2021/05/03 11:34:31;;;;;;;4.70;3.83;;;;;;;;;;5091258;28;20673;-89
2021/05/03 11:37:01;;;;;;;3.42;3.13;;;;;;;;;;5062902;28;20177;-90
2021/05/03 11:39:35;;;;;;;4.15;3.05;;;;;;;;;;5078799;28;20161;-88
2021/05/03 11:42:53;;;;;;;3.40;3.10;;;;;;;;;;5056195;28;20277;-82
2021/05/03 11:44:58;;;;;;;4.00;3.30;;;;;;;;;;5077923;28;20216;-89
2021/05/03 11:47:27;;;;;;;3.78;3.35;;;;;;;;;;5078470;28;20210;-85
2021/05/03 11:49:53;;;;;;;3.25;2.95;;;;;;;;;;5063930;28;20188;-90
2021/05/03 11:52:46;;;;;;;4.10;3.70;;;;;;;;;;5059535;28;20266;-87
2021/05/03 11:55:16;;;;;;;4.30;3.90;;;;;;;;;;5060887;28;20185;-86
2021/05/03 11:57:46;;;;;;;4.43;3.90;;;;;;;;;;5075510;28;20185;-84
2021/05/03 12:00:13;;;;;;;5.65;3.72;;;;;;;;;;5082502;28;20638;-84
2021/05/03 12:02:39;;;;;;;3.95;3.58;;;;;;;;;;5083722;28;20279;-89
2021/05/03 12:05:13;;;;;;;4.57;3.70;;;;;;;;;;5061972;28;20272;-90
2021/05/03 12:07:39;;;;;;;3.63;3.25;;;;;;;;;;5056368;28;20205;-87
2021/05/03 12:10:08;;;;;;;4.35;3.95;;;;;;;;;;5072706;28;20268;-89
2021/05/03 12:12:38;;;;;;;4.40;4.10;;;;;;;;;;5065030;28;20177;-89
2021/05/03 12:15:06;;;;;;;5.32;4.00;;;;;;;;;;5063459;28;20406;-89
2021/05/03 12:17:32;;;;;;;5.20;4.13;;;;;;;;;;5073550;28;20188;-86
2021/05/03 12:20:04;;;;;;;4.47;4.05;;;;;;;;;;5065917;28;20271;-83
2021/05/03 12:22:30;;;;;;;4.28;3.80;;;;;;;;;;5064964;28;20219;-81
2021/05/03 12:25:03;;;;;;;3.28;2.97;;;;;;;;;;5075695;28;20574;-90
2021/05/03 12:27:29;;;;;;;4.35;4.00;;;;;;;;;;5071495;28;20245;-86
2021/05/03 12:29:57;;;;;;;3.42;3.13;;;;;;;;;;5062844;28;20173;-83
2021/05/03 12:32:23;;;;;;;4.18;3.70;;;;;;;;;;5079354;28;20708;-91
2021/05/03 12:34:50;;;;;;;3.40;3.10;;;;;;;;;;5065625;28;20192;-88
2021/05/03 12:37:17;;;;;;;3.78;3.47;;;;;;;;;;5062172;28;20184;-89
2021/05/03 12:39:57;;;;;;;6.22;3.40;;;;;;;;;;5078163;28;20237;-84
2021/05/03 12:42:23;;;;;;;3.72;3.42;;;;;;;;;;5058902;28;20588;-86
2021/05/03 12:44:54;;;;;;;4.20;3.80;;;;;;;;;;5082950;28;20226;-91
2021/05/03 12:47:35;;;;;;;3.90;3.60;;;;;;;;;;5092389;28;20204;-93
2021/05/03 12:50:18;;;;;;;3.70;3.40;;;;;;;;;;5090605;28;20219;-89
2021/05/03 12:53:07;;;;;;;4.20;3.55;;;;;;;;;;5102618;28;20270;-89
2021/05/03 12:55:36;;;;;;;3.60;3.15;;;;;;;;;;5098268;28;20179;-87
2021/05/03 12:58:15;;;;;;;4.03;3.72;;;;;;;;;;5090084;28;20181;-85
2021/05/03 13:09:06;;;;;;;3.40;3.10;;;;;;;;;;5103504;28;20202;-87
2021/05/03 13:23:49;;;;;;;2.65;2.45;;;;;;;;;;5047116;28;20189;-90
2021/05/03 13:29:16;;;;;;;2.92;2.65;;;;;;;;;;5034542;28;20207;-88
2021/05/03 13:31:43;;;;;;;3.50;2.60;;;;;;;;;;5033270;28;20178;-83
2021/05/03 13:34:13;;;;;;;2.70;2.50;;;;;;;;;;5040976;28;20572;-88
2021/05/03 13:36:40;;;;;;;3.00;2.70;;;;;;;;;;5034438;28;20225;-85
2021/05/03 13:39:07;;;;;;;3.10;2.72;;;;;;;;;;5051144;28;20216;-85
2021/05/03 13:41:33;;;;;;;3.30;3.00;;;;;;;;;;5046260;28;20207;-95
2021/05/03 13:43:59;;;;;;;3.63;2.92;;;;;;;;;;5045501;28;20296;-90
2021/05/03 13:46:26;;;;;;;3.17;2.40;;;;;;;;;;5024487;28;20656;-89
2021/05/03 13:48:54;;;;;;;2.08;1.98;;;;;;;;;;5087803;28;20212;-90
2021/05/03 13:51:20;;;;;;;2.60;2.40;;;;;;;;;;5104031;28;20166;-86
2021/05/03 13:53:46;;;;;;;4.43;2.60;;;;;;;;;;5090038;28;20183;-88
2021/05/03 13:56:12;;;;;;;3.15;2.00;;;;;;;;;;5095450;28;20433;-86
2021/05/03 13:58:37;;;;;;;2.53;2.33;;;;;;;;;;5099762;28;20188;-91
2021/05/03 14:01:03;;;;;;;3.93;2.63;;;;;;;;;;5097112;28;20446;-84
2021/05/03 14:03:29;;;;;;;2.70;2.50;;;;;;;;;;5105592;28;20428;-86
2021/05/03 14:05:55;;;;;;;3.10;2.37;;;;;;;;;;5096867;28;20477;-87
2021/05/03 14:08:22;;;;;;;2.90;2.60;;;;;;;;;;5101155;28;20461;-85
2021/05/03 14:10:47;;;;;;;4.85;3.58;;;;;;;;;;5100178;28;20243;-86
2021/05/03 14:13:13;;;;;;;2.73;2.50;;;;;;;;;;5098047;28;20211;-87
2021/05/03 14:15:39;;;;;;;2.30;2.10;;;;;;;;;;5099844;28;20443;-83
2021/05/03 14:18:07;;;;;;;2.80;2.50;;;;;;;;;;5099740;28;20176;-89
2021/05/03 14:20:33;;;;;;;2.65;2.30;;;;;;;;;;5098773;28;20356;-89
2021/05/03 14:22:59;;;;;;;2.95;2.75;;;;;;;;;;5097538;28;20187;-82
2021/05/03 14:29:19;;;;;;;;;;;;;;;;;;;;;
2021/05/03 14:35:15;;;;;;;3.70;2.92;;;;;;;;;;4978264;28;20203;-89
2021/05/03 14:44:15;;;;;;;2.20;2.00;;;;;;;;;;4871861;29;20224;-89
2021/05/03 14:55:45;;;;;;;2.37;2.17;;;;;;;;;;4832752;29;20186;-86
2021/05/03 14:58:11;;;;;;;2.35;2.15;;;;;;;;;;4841026;29;20451;-86
2021/05/03 15:00:37;;;;;;;3.07;2.47;;;;;;;;;;4874970;29;20195;-86
2021/05/03 15:03:03;;;;;;;3.38;2.63;;;;;;;;;;4987637;28;20422;-89
2021/05/03 15:05:29;;;;;;;2.25;2.15;;;;;;;;;;4983255;28;20190;-87
2021/05/03 15:07:55;;;;;;;2.20;1.95;;;;;;;;;;5035073;28;20212;-86
2021/05/03 15:10:48;;;;;;;2.60;2.40;;;;;;;;;;5070395;28;20291;-90
2021/05/03 15:21:38;;;;;;;2.80;2.42;;;;;;;;;;5019067;28;20198;-87
2021/05/03 15:24:11;;;;;;;3.72;2.10;;;;;;;;;;4996006;28;20209;-87
2021/05/03 15:26:39;;;;;;;3.70;2.35;;;;;;;;;;5006864;28;20221;-85
2021/05/03 15:34:17;;;;;;;2.20;2.00;;;;;;;;;;5053033;28;20234;-83
2021/05/03 15:36:44;;;;;;;2.40;2.20;;;;;;;;;;5022792;28;20249;-90
2021/05/03 15:39:11;;;;;;;2.85;2.03;;;;;;;;;;5042078;28;20217;-88
2021/05/03 15:41:39;;;;;;;2.45;2.25;;;;;;;;;;5042140;28;20194;-86
2021/05/03 15:44:14;;;;;;;2.50;2.30;;;;;;;;;;5024650;28;20221;-84
2021/05/03 15:46:40;;;;;;;1.95;1.85;;;;;;;;;;5022377;28;20276;-87
2021/05/03 15:49:07;;;;;;;2.15;2.00;;;;;;;;;;5039702;28;20212;-84
2021/05/03 15:51:33;;;;;;;3.38;2.00;;;;;;;;;;5052422;28;20868;-88